Time;durP1;ratioP1;P1;durP2;ratioP2;P2;SDS_P1;SDS_P2;PMS_P1;PMS_P2;Temp;Humidity;BMP_temperature;BMP_pressure;BME280_temperature;BME280_humidity;BME280_pressure;Samples;Min_cycle;Max_cycle;Signal;HPM_P1;HPM_P2
2021/11/26 00:00:03;;;;;;;4.43;1.63;;;;;;;;;;2085127;28;20025;-81
2021/11/26 00:01:22;;;;;;;4.15;1.60;;;;;;;;;;2084067;28;20064;-80
2021/11/26 00:02:41;;;;;;;2.60;1.85;;;;;;;;;;2087968;28;20033;-80
2021/11/26 00:04:00;;;;;;;6.25;1.45;;;;;;;;;;2086615;28;20017;-80
2021/11/26 00:05:20;;;;;;;3.72;1.95;;;;;;;;;;2085303;28;20128;-81
2021/11/26 00:06:39;;;;;;;3.40;1.48;;;;;;;;;;2076952;28;20033;-80
2021/11/26 00:07:58;;;;;;;4.35;1.45;;;;;;;;;;2080680;28;20049;-80
2021/11/26 00:09:17;;;;;;;9.43;2.13;;;;;;;;;;2083505;28;20025;-81
2021/11/26 00:10:36;;;;;;;4.35;1.20;;;;;;;;;;2084930;28;20096;-80
2021/11/26 00:11:55;;;;;;;4.40;1.50;;;;;;;;;;2085126;28;20104;-80
2021/11/26 00:13:15;;;;;;;3.88;1.63;;;;;;;;;;2089140;28;20136;-81
2021/11/26 00:14:36;;;;;;;4.85;1.77;;;;;;;;;;2087107;28;20029;-81
2021/11/26 00:16:02;;;;;;;4.03;1.25;;;;;;;;;;2087986;28;20033;-81
2021/11/26 00:17:21;;;;;;;3.72;1.40;;;;;;;;;;2089396;28;20028;-81
2021/11/26 00:18:47;;;;;;;10.50;2.05;;;;;;;;;;2087509;28;20029;-80
2021/11/26 00:20:06;;;;;;;2.58;1.48;;;;;;;;;;2087996;28;20029;-81
2021/11/26 00:21:25;;;;;;;2.72;1.85;;;;;;;;;;2086008;28;20476;-80
2021/11/26 00:22:44;;;;;;;3.13;1.30;;;;;;;;;;2086144;28;20473;-79
2021/11/26 00:24:04;;;;;;;2.50;1.20;;;;;;;;;;2086945;28;20021;-79
2021/11/26 00:25:23;;;;;;;1.88;1.10;;;;;;;;;;2086571;28;20024;-80
2021/11/26 00:26:42;;;;;;;2.35;1.33;;;;;;;;;;2086033;28;20416;-79
2021/11/26 00:28:01;;;;;;;2.25;1.00;;;;;;;;;;2087413;28;20033;-80
2021/11/26 00:29:20;;;;;;;6.38;1.70;;;;;;;;;;2085131;28;21032;-80
2021/11/26 00:30:38;;;;;;;5.22;1.67;;;;;;;;;;2089514;28;20029;-80
2021/11/26 00:31:57;;;;;;;4.78;1.80;;;;;;;;;;2084464;28;20033;-80
2021/11/26 00:33:16;;;;;;;4.95;1.20;;;;;;;;;;2091160;28;20033;-80
2021/11/26 00:34:35;;;;;;;2.20;1.33;;;;;;;;;;2086351;28;20455;-79
2021/11/26 00:35:54;;;;;;;4.88;1.60;;;;;;;;;;2084988;28;20052;-80
2021/11/26 00:37:13;;;;;;;3.35;1.25;;;;;;;;;;2088947;28;20115;-80
2021/11/26 00:38:32;;;;;;;4.45;1.10;;;;;;;;;;2085429;28;20022;-80
2021/11/26 00:39:51;;;;;;;2.33;1.10;;;;;;;;;;2086926;28;20017;-81
2021/11/26 00:41:10;;;;;;;2.97;1.67;;;;;;;;;;2090478;28;20025;-79
2021/11/26 00:42:29;;;;;;;4.93;1.30;;;;;;;;;;2087471;28;20030;-80
2021/11/26 00:43:48;;;;;;;3.05;0.90;;;;;;;;;;2097599;28;20037;-82
2021/11/26 00:45:08;;;;;;;8.40;1.90;;;;;;;;;;2089661;28;20485;-80
2021/11/26 00:46:27;;;;;;;2.20;1.02;;;;;;;;;;2085913;28;20021;-80
2021/11/26 00:47:46;;;;;;;3.53;1.63;;;;;;;;;;2086261;28;20147;-80
2021/11/26 00:49:05;;;;;;;7.32;1.27;;;;;;;;;;2085769;28;20068;-81
2021/11/26 00:50:24;;;;;;;4.22;1.02;;;;;;;;;;2085893;28;20029;-80
2021/11/26 00:51:43;;;;;;;5.05;1.60;;;;;;;;;;2087078;28;20060;-80
2021/11/26 00:53:01;;;;;;;4.65;1.50;;;;;;;;;;2084574;28;20493;-79
2021/11/26 00:54:21;;;;;;;5.53;1.20;;;;;;;;;;2085054;28;20112;-80
2021/11/26 00:55:40;;;;;;;3.60;1.25;;;;;;;;;;2084809;28;20045;-80
2021/11/26 00:56:58;;;;;;;4.57;1.20;;;;;;;;;;2088602;28;20115;-80
2021/11/26 00:58:17;;;;;;;1.98;1.05;;;;;;;;;;2085898;28;20025;-80
2021/11/26 00:59:37;;;;;;;1.35;0.93;;;;;;;;;;2088235;28;20033;-81
2021/11/26 01:00:56;;;;;;;4.50;1.10;;;;;;;;;;2084917;28;20033;-82
2021/11/26 01:02:15;;;;;;;7.00;1.52;;;;;;;;;;2086397;28;20022;-81
2021/11/26 01:03:34;;;;;;;2.00;1.20;;;;;;;;;;2088118;28;20037;-80
2021/11/26 01:04:53;;;;;;;4.50;1.27;;;;;;;;;;2087496;28;20033;-80
2021/11/26 01:06:11;;;;;;;5.13;1.52;;;;;;;;;;2086175;28;20401;-80
2021/11/26 01:07:30;;;;;;;3.55;1.23;;;;;;;;;;2085209;28;20021;-80
2021/11/26 01:08:49;;;;;;;2.72;1.08;;;;;;;;;;2086947;28;20386;-81
2021/11/26 01:10:10;;;;;;;3.85;1.23;;;;;;;;;;2087463;28;20493;-82
2021/11/26 01:11:29;;;;;;;1.90;1.48;;;;;;;;;;2084009;28;20032;-81
2021/11/26 01:12:48;;;;;;;3.15;1.10;;;;;;;;;;2089217;28;20016;-81
2021/11/26 01:14:07;;;;;;;2.05;1.30;;;;;;;;;;2085053;28;20029;-81
2021/11/26 01:15:27;;;;;;;6.68;1.92;;;;;;;;;;2089098;28;20072;-82
2021/11/26 01:16:46;;;;;;;5.53;1.52;;;;;;;;;;2087436;28;20053;-82
2021/11/26 01:18:05;;;;;;;4.03;1.27;;;;;;;;;;2088419;28;20030;-81
2021/11/26 01:19:25;;;;;;;2.63;1.00;;;;;;;;;;2088665;28;20041;-81
2021/11/26 01:20:45;;;;;;;4.28;1.58;;;;;;;;;;2086268;28;20076;-80
2021/11/26 01:22:04;;;;;;;2.78;1.40;;;;;;;;;;2087396;28;20029;-80
2021/11/26 01:23:24;;;;;;;4.57;1.40;;;;;;;;;;2092044;28;20033;-81
2021/11/26 01:24:43;;;;;;;1.73;1.15;;;;;;;;;;2087014;28;20021;-81
2021/11/26 01:26:03;;;;;;;2.50;1.17;;;;;;;;;;2088449;28;20061;-82
2021/11/26 01:27:22;;;;;;;5.72;1.63;;;;;;;;;;2086952;28;20370;-83
2021/11/26 01:28:41;;;;;;;1.58;1.15;;;;;;;;;;2092524;28;20123;-81
2021/11/26 01:30:03;;;;;;;2.15;1.08;;;;;;;;;;2085886;28;20119;-82
2021/11/26 01:31:23;;;;;;;3.88;1.45;;;;;;;;;;2088223;28;20025;-82
2021/11/26 01:32:43;;;;;;;2.42;1.25;;;;;;;;;;2086173;28;20037;-80
2021/11/26 01:34:03;;;;;;;3.95;1.30;;;;;;;;;;2087774;28;20029;-81
2021/11/26 01:35:23;;;;;;;5.63;1.30;;;;;;;;;;2085302;28;20044;-80
2021/11/26 01:36:42;;;;;;;2.70;1.35;;;;;;;;;;2088611;28;20029;-80
2021/11/26 01:38:04;;;;;;;8.20;1.75;;;;;;;;;;2087503;28;20127;-81
2021/11/26 01:39:23;;;;;;;2.50;1.38;;;;;;;;;;2085050;28;20525;-80
2021/11/26 01:40:42;;;;;;;2.15;1.42;;;;;;;;;;2084471;28;20029;-80
2021/11/26 01:42:01;;;;;;;6.50;1.20;;;;;;;;;;2086597;28;20108;-80
2021/11/26 01:43:20;;;;;;;5.93;1.67;;;;;;;;;;2086210;28;20032;-80
2021/11/26 01:44:40;;;;;;;4.53;1.60;;;;;;;;;;2090757;28;20021;-79
2021/11/26 01:46:07;;;;;;;4.80;1.52;;;;;;;;;;2085203;28;20025;-80
2021/11/26 01:47:27;;;;;;;6.28;1.30;;;;;;;;;;2086365;28;20028;-79
2021/11/26 01:48:46;;;;;;;2.95;1.20;;;;;;;;;;2087060;28;20041;-79
2021/11/26 01:50:05;;;;;;;2.50;1.48;;;;;;;;;;2086848;28;20033;-80
2021/11/26 01:51:24;;;;;;;3.28;1.10;;;;;;;;;;2087919;28;20111;-81
2021/11/26 01:52:43;;;;;;;4.90;1.20;;;;;;;;;;2086050;28;20037;-79
2021/11/26 01:54:02;;;;;;;1.65;1.00;;;;;;;;;;2089286;28;20029;-79
2021/11/26 01:55:22;;;;;;;3.20;1.00;;;;;;;;;;2089395;28;20029;-80
2021/11/26 01:56:41;;;;;;;5.45;1.17;;;;;;;;;;2087452;28;20037;-80
2021/11/26 01:58:00;;;;;;;4.57;1.30;;;;;;;;;;2089450;28;20028;-80
2021/11/26 01:59:19;;;;;;;2.95;1.50;;;;;;;;;;2094904;28;20025;-80
2021/11/26 02:00:40;;;;;;;4.43;1.75;;;;;;;;;;2084166;28;20033;-81
2021/11/26 02:01:58;;;;;;;7.25;1.40;;;;;;;;;;2085961;28;20103;-82
2021/11/26 02:03:17;;;;;;;2.72;1.67;;;;;;;;;;2092404;28;20013;-81
2021/11/26 02:04:36;;;;;;;2.72;1.13;;;;;;;;;;2088902;28;20029;-81
2021/11/26 02:05:55;;;;;;;2.83;1.23;;;;;;;;;;2083575;28;20041;-80
2021/11/26 02:07:14;;;;;;;2.00;1.23;;;;;;;;;;2088338;28;20103;-80
2021/11/26 02:08:33;;;;;;;2.42;1.15;;;;;;;;;;2085309;28;20036;-82
2021/11/26 02:09:52;;;;;;;5.50;1.65;;;;;;;;;;2088474;28;20036;-81
2021/11/26 02:11:11;;;;;;;3.95;1.52;;;;;;;;;;2089686;28;20064;-80
2021/11/26 02:12:31;;;;;;;2.17;1.30;;;;;;;;;;2087801;28;20660;-80
2021/11/26 02:13:50;;;;;;;5.22;1.35;;;;;;;;;;2085026;28;20507;-80
2021/11/26 02:15:15;;;;;;;7.30;1.25;;;;;;;;;;2083026;28;20025;-80
2021/11/26 02:17:00;;;;;;;3.17;1.02;;;;;;;;;;2084744;28;20061;-80
2021/11/26 02:18:19;;;;;;;2.95;1.15;;;;;;;;;;2083284;28;20033;-80
2021/11/26 02:19:38;;;;;;;4.75;1.27;;;;;;;;;;2084185;28;20029;-80
2021/11/26 02:20:58;;;;;;;6.53;1.10;;;;;;;;;;2083916;28;20017;-80
2021/11/26 02:22:16;;;;;;;1.23;1.00;;;;;;;;;;2087165;28;20021;-80
2021/11/26 02:23:35;;;;;;;4.30;0.85;;;;;;;;;;2083839;28;20029;-80
2021/11/26 02:24:54;;;;;;;1.92;0.90;;;;;;;;;;2086165;28;20029;-80
2021/11/26 02:26:13;;;;;;;5.53;1.40;;;;;;;;;;2094307;28;20114;-80
2021/11/26 02:27:31;;;;;;;1.17;1.00;;;;;;;;;;2088327;28;20025;-80
2021/11/26 02:28:50;;;;;;;2.00;1.05;;;;;;;;;;2089754;28;20471;-81
2021/11/26 02:30:17;;;;;;;2.45;1.20;;;;;;;;;;2082014;28;20034;-80
2021/11/26 02:31:36;;;;;;;1.80;0.80;;;;;;;;;;2084745;28;20477;-80
2021/11/26 02:32:56;;;;;;;2.92;0.95;;;;;;;;;;2087962;28;20119;-79
2021/11/26 02:34:15;;;;;;;1.35;1.10;;;;;;;;;;2088770;28;20037;-82
2021/11/26 02:35:35;;;;;;;2.13;1.10;;;;;;;;;;2088392;28;20033;-80
2021/11/26 02:36:54;;;;;;;3.83;1.33;;;;;;;;;;2085015;28;20044;-81
2021/11/26 02:38:13;;;;;;;3.38;1.13;;;;;;;;;;2084156;28;20045;-80
2021/11/26 02:39:32;;;;;;;5.40;1.10;;;;;;;;;;2085581;28;20444;-80
2021/11/26 02:40:51;;;;;;;3.70;1.42;;;;;;;;;;2082375;28;20029;-80
2021/11/26 02:42:10;;;;;;;3.53;1.10;;;;;;;;;;2082507;28;20026;-80
2021/11/26 02:43:29;;;;;;;4.80;1.15;;;;;;;;;;2084288;28;20029;-80
2021/11/26 02:44:47;;;;;;;3.08;1.10;;;;;;;;;;2088117;28;20140;-80
2021/11/26 02:46:06;;;;;;;2.10;0.88;;;;;;;;;;2087448;28;20530;-80
2021/11/26 02:47:25;;;;;;;4.55;1.25;;;;;;;;;;2085284;28;20044;-79
2021/11/26 02:48:45;;;;;;;2.63;0.90;;;;;;;;;;2083525;28;20411;-79
2021/11/26 02:50:07;;;;;;;3.90;1.58;;;;;;;;;;2085053;28;20025;-79
2021/11/26 02:51:26;;;;;;;5.03;1.13;;;;;;;;;;2090364;28;20025;-80
2021/11/26 02:52:46;;;;;;;3.10;1.23;;;;;;;;;;2087600;28;20033;-80
2021/11/26 02:54:05;;;;;;;2.80;1.13;;;;;;;;;;2087953;28;20044;-79
2021/11/26 02:55:25;;;;;;;4.97;1.73;;;;;;;;;;2085781;28;20021;-79
2021/11/26 02:56:44;;;;;;;2.78;1.08;;;;;;;;;;2087006;28;20041;-80
2021/11/26 02:58:03;;;;;;;3.78;1.02;;;;;;;;;;2086100;28;20498;-79
2021/11/26 02:59:22;;;;;;;3.88;1.35;;;;;;;;;;2086919;28;20029;-80
2021/11/26 03:00:42;;;;;;;5.13;1.30;;;;;;;;;;2090888;28;20025;-80
2021/11/26 03:02:02;;;;;;;2.83;1.25;;;;;;;;;;2083788;28;20393;-80
2021/11/26 03:03:21;;;;;;;3.92;1.65;;;;;;;;;;2087029;28;20028;-80
2021/11/26 03:04:40;;;;;;;2.83;0.90;;;;;;;;;;2084822;28;20107;-80
2021/11/26 03:06:00;;;;;;;6.90;1.00;;;;;;;;;;2087874;28;20029;-81
2021/11/26 03:07:19;;;;;;;5.07;1.38;;;;;;;;;;2087809;28;20036;-80
2021/11/26 03:08:38;;;;;;;2.03;1.23;;;;;;;;;;2085411;28;20088;-80
2021/11/26 03:09:56;;;;;;;4.40;1.08;;;;;;;;;;2085987;28;20024;-80
2021/11/26 03:11:15;;;;;;;2.67;1.15;;;;;;;;;;2087299;28;20029;-80
2021/11/26 03:12:35;;;;;;;4.03;1.00;;;;;;;;;;2085513;28;20033;-81
2021/11/26 03:13:54;;;;;;;3.22;1.38;;;;;;;;;;2084159;28;20090;-80
2021/11/26 03:15:13;;;;;;;2.92;1.10;;;;;;;;;;2086018;28;20033;-81
2021/11/26 03:16:33;;;;;;;3.35;1.23;;;;;;;;;;2085629;28;20037;-81
2021/11/26 03:17:52;;;;;;;3.05;0.80;;;;;;;;;;2086618;28;20025;-81
2021/11/26 03:19:11;;;;;;;2.75;1.08;;;;;;;;;;2083055;28;20038;-80
2021/11/26 03:20:30;;;;;;;3.85;1.10;;;;;;;;;;2087729;28;20025;-80
2021/11/26 03:21:49;;;;;;;1.67;1.15;;;;;;;;;;2088663;28;20025;-80
2021/11/26 03:23:09;;;;;;;8.57;2.08;;;;;;;;;;2083588;28;20021;-80
2021/11/26 03:24:28;;;;;;;2.80;1.20;;;;;;;;;;2084844;28;20025;-80
2021/11/26 03:25:47;;;;;;;1.25;0.95;;;;;;;;;;2083460;28;20029;-79
2021/11/26 03:27:05;;;;;;;4.68;1.42;;;;;;;;;;2087965;28;20112;-80
2021/11/26 03:28:24;;;;;;;1.92;1.10;;;;;;;;;;2083720;28;20560;-80
2021/11/26 03:29:43;;;;;;;3.90;1.27;;;;;;;;;;2086029;28;20037;-80
2021/11/26 03:31:02;;;;;;;1.45;0.70;;;;;;;;;;2085896;28;20041;-80
2021/11/26 03:32:21;;;;;;;2.00;0.80;;;;;;;;;;2084437;28;20036;-80
2021/11/26 03:33:40;;;;;;;4.13;1.08;;;;;;;;;;2081826;28;20033;-80
2021/11/26 03:34:59;;;;;;;2.95;0.93;;;;;;;;;;2082667;28;20025;-80
2021/11/26 03:36:19;;;;;;;5.88;1.63;;;;;;;;;;2088775;28;20033;-79
2021/11/26 03:37:38;;;;;;;2.35;1.30;;;;;;;;;;2089034;28;20033;-79
2021/11/26 03:38:57;;;;;;;4.53;1.33;;;;;;;;;;2089210;28;20432;-80
2021/11/26 03:40:17;;;;;;;2.03;1.15;;;;;;;;;;2086688;28;20053;-80
2021/11/26 03:41:36;;;;;;;4.53;1.05;;;;;;;;;;2088335;28;20041;-79
2021/11/26 03:42:55;;;;;;;2.08;1.00;;;;;;;;;;2088545;28;20473;-80
2021/11/26 03:44:14;;;;;;;3.00;1.10;;;;;;;;;;2086755;28;20041;-79
2021/11/26 03:45:34;;;;;;;2.75;1.50;;;;;;;;;;2085068;28;20029;-80
2021/11/26 03:46:53;;;;;;;3.80;1.30;;;;;;;;;;2084061;28;20492;-79
2021/11/26 03:48:11;;;;;;;4.80;1.02;;;;;;;;;;2086021;28;20024;-80
2021/11/26 03:49:30;;;;;;;1.67;1.30;;;;;;;;;;2088118;28;20033;-81
2021/11/26 03:50:49;;;;;;;2.15;1.10;;;;;;;;;;2083909;28;20492;-80
2021/11/26 03:52:08;;;;;;;3.35;1.63;;;;;;;;;;2080700;28;20033;-79
2021/11/26 03:53:27;;;;;;;2.30;1.00;;;;;;;;;;2083625;28;20041;-79
2021/11/26 03:54:46;;;;;;;11.50;1.55;;;;;;;;;;2088283;28;20059;-81
2021/11/26 03:56:05;;;;;;;4.35;1.50;;;;;;;;;;2086396;28;20021;-80
2021/11/26 03:57:24;;;;;;;2.75;1.10;;;;;;;;;;2085501;28;20037;-80
2021/11/26 03:58:43;;;;;;;4.63;1.30;;;;;;;;;;2085702;28;21088;-79
2021/11/26 04:00:05;;;;;;;3.42;1.30;;;;;;;;;;2086632;28;20021;-81
2021/11/26 04:01:24;;;;;;;4.80;1.73;;;;;;;;;;2098855;28;20437;-80
2021/11/26 04:02:43;;;;;;;1.95;1.00;;;;;;;;;;2088681;28;20029;-80
2021/11/26 04:04:02;;;;;;;2.55;1.45;;;;;;;;;;2086845;28;20025;-79
2021/11/26 04:05:22;;;;;;;4.65;1.45;;;;;;;;;;2085212;28;20029;-81
2021/11/26 04:06:41;;;;;;;3.13;1.13;;;;;;;;;;2087433;28;20057;-81
2021/11/26 04:08:00;;;;;;;2.78;1.33;;;;;;;;;;2087991;28;20040;-80
2021/11/26 04:09:19;;;;;;;2.42;1.45;;;;;;;;;;2084349;28;20029;-80
2021/11/26 04:10:38;;;;;;;1.25;1.00;;;;;;;;;;2085181;28;20513;-80
2021/11/26 04:11:56;;;;;;;2.70;1.00;;;;;;;;;;2094243;28;20020;-81
2021/11/26 04:13:17;;;;;;;2.47;1.15;;;;;;;;;;2088622;28;20045;-81
2021/11/26 04:14:36;;;;;;;3.67;1.50;;;;;;;;;;2088905;28;20025;-81
2021/11/26 04:16:01;;;;;;;3.50;1.08;;;;;;;;;;2088642;28;20041;-81
2021/11/26 04:17:21;;;;;;;5.95;1.35;;;;;;;;;;2085541;28;20025;-81
2021/11/26 04:18:41;;;;;;;2.50;1.08;;;;;;;;;;2085987;28;20037;-81
2021/11/26 04:20:00;;;;;;;3.25;1.30;;;;;;;;;;2084747;28;20025;-80
2021/11/26 04:21:19;;;;;;;3.85;1.23;;;;;;;;;;2084422;28;20025;-80
2021/11/26 04:22:38;;;;;;;3.53;1.20;;;;;;;;;;2086656;28;20065;-80
2021/11/26 04:23:58;;;;;;;4.25;1.17;;;;;;;;;;2088597;28;20042;-80
2021/11/26 04:25:18;;;;;;;5.93;1.55;;;;;;;;;;2085399;28;20033;-80
2021/11/26 04:26:36;;;;;;;5.45;1.50;;;;;;;;;;2098660;28;20028;-80
2021/11/26 04:27:55;;;;;;;2.67;1.45;;;;;;;;;;2087609;28;20033;-81
2021/11/26 04:29:14;;;;;;;4.07;1.20;;;;;;;;;;2085940;28;20144;-80
2021/11/26 04:30:33;;;;;;;4.32;1.08;;;;;;;;;;2085991;28;20512;-81
2021/11/26 04:31:52;;;;;;;1.20;0.93;;;;;;;;;;2085656;28;20037;-82
2021/11/26 04:33:11;;;;;;;4.80;1.40;;;;;;;;;;2086594;28;20030;-80
2021/11/26 04:34:30;;;;;;;3.05;1.00;;;;;;;;;;2090704;28;20037;-80
2021/11/26 04:35:49;;;;;;;8.85;1.55;;;;;;;;;;2089535;28;20018;-80
2021/11/26 04:37:08;;;;;;;4.65;1.15;;;;;;;;;;2086229;28;20436;-80
2021/11/26 04:38:28;;;;;;;2.97;1.20;;;;;;;;;;2085817;28;20056;-81
2021/11/26 04:39:47;;;;;;;3.47;1.33;;;;;;;;;;2089704;28;20489;-81
2021/11/26 04:41:06;;;;;;;4.47;1.10;;;;;;;;;;2088594;28;20041;-80
2021/11/26 04:42:25;;;;;;;2.83;1.63;;;;;;;;;;2084747;28;20033;-79
2021/11/26 04:43:44;;;;;;;4.18;1.17;;;;;;;;;;2084165;28;20112;-81
2021/11/26 04:45:04;;;;;;;3.58;1.02;;;;;;;;;;2083113;28;20037;-80
2021/11/26 04:46:23;;;;;;;6.40;1.42;;;;;;;;;;2091641;28;20032;-80
2021/11/26 04:47:42;;;;;;;2.25;1.30;;;;;;;;;;2088164;28;20025;-80
2021/11/26 04:49:04;;;;;;;1.75;0.95;;;;;;;;;;2086191;28;20068;-79
2021/11/26 04:50:23;;;;;;;7.40;1.50;;;;;;;;;;2086902;28;20458;-80
2021/11/26 04:51:42;;;;;;;2.60;1.30;;;;;;;;;;2089109;28;20033;-80
2021/11/26 04:53:01;;;;;;;6.05;1.30;;;;;;;;;;2089964;28;20037;-80
2021/11/26 04:54:20;;;;;;;6.40;1.35;;;;;;;;;;2089944;28;20040;-80
2021/11/26 04:55:39;;;;;;;2.63;1.45;;;;;;;;;;2090600;28;20104;-80
2021/11/26 04:56:57;;;;;;;2.22;1.05;;;;;;;;;;2083069;28;20033;-80
2021/11/26 04:58:16;;;;;;;2.92;1.20;;;;;;;;;;2085865;28;20101;-80
2021/11/26 04:59:35;;;;;;;2.92;1.00;;;;;;;;;;2085215;28;20040;-80
2021/11/26 05:00:54;;;;;;;3.75;1.27;;;;;;;;;;2084860;28;20033;-80
2021/11/26 05:02:13;;;;;;;4.07;1.40;;;;;;;;;;2084353;28;20511;-80
2021/11/26 05:03:32;;;;;;;5.05;1.23;;;;;;;;;;2090506;28;20452;-82
2021/11/26 05:04:50;;;;;;;8.95;1.25;;;;;;;;;;2088452;28;20510;-79
2021/11/26 05:06:09;;;;;;;2.75;0.90;;;;;;;;;;2087941;28;20104;-80
2021/11/26 05:07:28;;;;;;;2.75;1.20;;;;;;;;;;2086032;28;20033;-80
2021/11/26 05:08:46;;;;;;;3.85;1.25;;;;;;;;;;2086473;28;20440;-80
2021/11/26 05:10:06;;;;;;;2.83;1.40;;;;;;;;;;2087935;28;20427;-80
2021/11/26 05:11:25;;;;;;;3.92;1.48;;;;;;;;;;2088984;28;20032;-80
2021/11/26 05:12:51;;;;;;;4.53;1.25;;;;;;;;;;2089521;28;20037;-80
2021/11/26 05:14:16;;;;;;;5.68;1.58;;;;;;;;;;2084160;28;20037;-80
2021/11/26 05:15:35;;;;;;;6.30;1.23;;;;;;;;;;2085715;28;20041;-80
2021/11/26 05:16:54;;;;;;;6.68;1.70;;;;;;;;;;2081674;28;20045;-80
2021/11/26 05:18:13;;;;;;;7.25;1.63;;;;;;;;;;2082084;28;20037;-79
2021/11/26 05:19:32;;;;;;;7.72;1.95;;;;;;;;;;2084610;28;20033;-80
2021/11/26 05:20:51;;;;;;;14.20;1.80;;;;;;;;;;2081890;28;20115;-80
2021/11/26 05:22:10;;;;;;;8.60;1.90;;;;;;;;;;2083906;28;20021;-79
2021/11/26 05:23:29;;;;;;;3.65;0.95;;;;;;;;;;2083705;28;20036;-80
2021/11/26 05:24:48;;;;;;;3.70;1.17;;;;;;;;;;2085621;28;20033;-79
2021/11/26 05:26:07;;;;;;;4.75;1.33;;;;;;;;;;2085203;28;20032;-79
2021/11/26 05:27:26;;;;;;;6.75;1.90;;;;;;;;;;2088047;28;20044;-81
2021/11/26 05:28:46;;;;;;;3.30;1.25;;;;;;;;;;2091379;28;20036;-80
2021/11/26 05:30:06;;;;;;;7.93;1.45;;;;;;;;;;2089404;28;20132;-81
2021/11/26 05:31:25;;;;;;;4.90;1.40;;;;;;;;;;2087556;28;20033;-80
2021/11/26 05:32:44;;;;;;;1.98;1.10;;;;;;;;;;2086917;28;20041;-84
2021/11/26 05:34:03;;;;;;;5.43;1.35;;;;;;;;;;2089229;28;20036;-80
2021/11/26 05:35:22;;;;;;;4.93;1.35;;;;;;;;;;2089065;28;20030;-80
2021/11/26 05:36:43;;;;;;;4.30;1.60;;;;;;;;;;2089770;28;20064;-81
2021/11/26 05:38:05;;;;;;;7.65;1.65;;;;;;;;;;2087102;28;20025;-80
2021/11/26 05:39:24;;;;;;;6.50;1.48;;;;;;;;;;2084406;28;20467;-81
2021/11/26 05:40:43;;;;;;;5.90;1.45;;;;;;;;;;2085103;28;20120;-81
2021/11/26 05:42:03;;;;;;;2.83;1.30;;;;;;;;;;2086267;28;20017;-82
2021/11/26 05:43:22;;;;;;;3.60;1.40;;;;;;;;;;2086035;28;20021;-81
2021/11/26 05:44:40;;;;;;;4.07;1.42;;;;;;;;;;2087123;28;20033;-80
2021/11/26 05:45:59;;;;;;;4.30;1.23;;;;;;;;;;2085460;28;20029;-81
2021/11/26 05:47:18;;;;;;;2.63;1.50;;;;;;;;;;2088666;28;20051;-81
2021/11/26 05:48:37;;;;;;;2.38;1.42;;;;;;;;;;2089316;28;20037;-82
2021/11/26 05:49:56;;;;;;;3.95;1.17;;;;;;;;;;2084919;28;20042;-81
2021/11/26 05:51:15;;;;;;;9.35;1.92;;;;;;;;;;2087065;28;20033;-81
2021/11/26 05:52:34;;;;;;;4.55;1.67;;;;;;;;;;2084648;28;20030;-81
2021/11/26 05:53:53;;;;;;;3.22;1.45;;;;;;;;;;2085351;28;20037;-81
2021/11/26 05:55:14;;;;;;;4.03;1.52;;;;;;;;;;2079466;28;20076;-81
2021/11/26 05:56:33;;;;;;;4.15;1.50;;;;;;;;;;2089650;28;20044;-82
2021/11/26 05:57:52;;;;;;;1.80;1.10;;;;;;;;;;2088610;28;20140;-81
2021/11/26 05:59:12;;;;;;;15.90;1.83;;;;;;;;;;2085541;28;20017;-79
2021/11/26 06:00:32;;;;;;;3.67;1.40;;;;;;;;;;2085133;28;20029;-81
2021/11/26 06:01:52;;;;;;;8.02;2.20;;;;;;;;;;2086008;28;20037;-82
2021/11/26 06:03:10;;;;;;;6.20;2.03;;;;;;;;;;2085875;28;20030;-81
2021/11/26 06:04:31;;;;;;;4.10;1.25;;;;;;;;;;2086232;28;20112;-81
2021/11/26 06:05:50;;;;;;;3.78;1.15;;;;;;;;;;2089119;28;20029;-81
2021/11/26 06:07:09;;;;;;;5.72;1.52;;;;;;;;;;2090249;28;20036;-82
2021/11/26 06:08:28;;;;;;;3.92;1.25;;;;;;;;;;2084927;28;20033;-81
2021/11/26 06:09:47;;;;;;;4.85;1.85;;;;;;;;;;2088349;28;20389;-83
2021/11/26 06:11:06;;;;;;;4.20;1.60;;;;;;;;;;2084304;28;20068;-83
2021/11/26 06:12:25;;;;;;;4.38;1.73;;;;;;;;;;2085694;28;20056;-83
2021/11/26 06:13:44;;;;;;;11.70;2.15;;;;;;;;;;2089893;28;20044;-80
2021/11/26 06:15:03;;;;;;;7.40;1.75;;;;;;;;;;2084412;28;20115;-81
2021/11/26 06:16:23;;;;;;;9.48;1.80;;;;;;;;;;2087576;28;20060;-83
2021/11/26 06:17:42;;;;;;;11.98;2.45;;;;;;;;;;2085879;28;20033;-81
2021/11/26 06:19:01;;;;;;;9.05;2.00;;;;;;;;;;2088533;28;20030;-82
2021/11/26 06:20:21;;;;;;;8.52;1.80;;;;;;;;;;2086586;28;20055;-81
2021/11/26 06:21:39;;;;;;;13.57;1.98;;;;;;;;;;2089398;28;20017;-83
2021/11/26 06:22:58;;;;;;;8.57;1.77;;;;;;;;;;2084757;28;20022;-82
2021/11/26 06:24:17;;;;;;;6.72;1.73;;;;;;;;;;2082825;28;20018;-83
2021/11/26 06:25:36;;;;;;;6.35;1.63;;;;;;;;;;2085125;28;20037;-82
2021/11/26 06:26:55;;;;;;;7.90;1.50;;;;;;;;;;2086378;28;20032;-83
2021/11/26 06:28:14;;;;;;;10.32;1.70;;;;;;;;;;2084264;28;20656;-81
2021/11/26 06:29:32;;;;;;;4.60;1.65;;;;;;;;;;2085473;28;20048;-82
2021/11/26 06:30:51;;;;;;;6.43;2.00;;;;;;;;;;2089004;28;20385;-80
2021/11/26 06:32:10;;;;;;;6.10;1.85;;;;;;;;;;2088839;28;20449;-83
2021/11/26 06:33:30;;;;;;;13.32;2.80;;;;;;;;;;2084291;28;20056;-81
2021/11/26 06:34:49;;;;;;;6.85;1.90;;;;;;;;;;2085102;28;20081;-81
2021/11/26 06:36:08;;;;;;;9.15;2.88;;;;;;;;;;2084194;28;21269;-82
2021/11/26 06:37:28;;;;;;;7.53;3.28;;;;;;;;;;2088994;28;20040;-82
2021/11/26 06:38:49;;;;;;;10.52;3.00;;;;;;;;;;2082250;28;20021;-82
2021/11/26 06:40:09;;;;;;;10.90;2.00;;;;;;;;;;2084237;28;20765;-81
2021/11/26 06:41:27;;;;;;;7.63;2.00;;;;;;;;;;2086037;28;20037;-81
2021/11/26 06:42:47;;;;;;;13.00;2.35;;;;;;;;;;2085641;28;20027;-82
2021/11/26 06:44:06;;;;;;;9.10;1.98;;;;;;;;;;2084725;28;20104;-82
2021/11/26 06:45:25;;;;;;;7.75;2.55;;;;;;;;;;2085838;28;20029;-80
2021/11/26 06:46:43;;;;;;;7.18;1.98;;;;;;;;;;2083518;28;20033;-81
2021/11/26 06:48:03;;;;;;;7.68;1.95;;;;;;;;;;2084055;28;20151;-79
2021/11/26 06:49:22;;;;;;;6.63;2.25;;;;;;;;;;2083632;28;20029;-81
2021/11/26 06:50:41;;;;;;;5.32;1.20;;;;;;;;;;2086827;28;20033;-80
2021/11/26 06:52:00;;;;;;;6.65;1.80;;;;;;;;;;2094057;28;20067;-80
2021/11/26 06:53:19;;;;;;;7.68;2.28;;;;;;;;;;2086597;28;20029;-80
2021/11/26 06:54:38;;;;;;;12.00;1.73;;;;;;;;;;2087915;28;20112;-80
2021/11/26 06:55:57;;;;;;;6.63;2.00;;;;;;;;;;2085897;28;20115;-81
2021/11/26 06:57:18;;;;;;;4.93;1.50;;;;;;;;;;2093949;28;20020;-80
2021/11/26 06:58:37;;;;;;;4.78;1.83;;;;;;;;;;2087659;28;20041;-80
2021/11/26 06:59:56;;;;;;;5.78;1.42;;;;;;;;;;2082874;28;20330;-80
2021/11/26 07:01:14;;;;;;;5.70;1.48;;;;;;;;;;2087841;28;20037;-80
2021/11/26 07:02:33;;;;;;;6.55;1.65;;;;;;;;;;2083878;28;20060;-81
2021/11/26 07:03:54;;;;;;;3.00;1.40;;;;;;;;;;2085673;28;20501;-79
2021/11/26 07:05:13;;;;;;;8.93;1.80;;;;;;;;;;2082508;28;20033;-81
2021/11/26 07:06:33;;;;;;;6.75;1.80;;;;;;;;;;2087118;28;20025;-81
2021/11/26 07:07:52;;;;;;;4.03;1.42;;;;;;;;;;2087292;28;20018;-80
2021/11/26 07:09:11;;;;;;;7.88;1.40;;;;;;;;;;2075027;28;20029;-79
2021/11/26 07:10:30;;;;;;;12.82;1.67;;;;;;;;;;2084563;28;20433;-80
2021/11/26 07:11:49;;;;;;;14.27;2.63;;;;;;;;;;2083017;28;20104;-80
2021/11/26 07:13:08;;;;;;;9.90;2.10;;;;;;;;;;2085148;28;20029;-80
2021/11/26 07:14:27;;;;;;;15.18;1.67;;;;;;;;;;2084699;28;20283;-80
2021/11/26 07:15:47;;;;;;;7.93;1.95;;;;;;;;;;2087547;28;20099;-80
2021/11/26 07:17:06;;;;;;;6.13;1.77;;;;;;;;;;2086796;28;20535;-80
2021/11/26 07:18:24;;;;;;;9.93;1.80;;;;;;;;;;2086996;28;20037;-80
2021/11/26 07:19:49;;;;;;;13.50;2.25;;;;;;;;;;2084635;28;20045;-79
2021/11/26 07:21:08;;;;;;;6.47;1.60;;;;;;;;;;2086516;28;20033;-78
2021/11/26 07:22:27;;;;;;;7.53;1.55;;;;;;;;;;2085431;28;20021;-78
2021/11/26 07:23:46;;;;;;;10.73;1.92;;;;;;;;;;2084186;28;20033;-78
2021/11/26 07:25:06;;;;;;;6.22;1.50;;;;;;;;;;2085997;28;20025;-78
2021/11/26 07:26:25;;;;;;;8.23;1.52;;;;;;;;;;2085277;28;20038;-78
2021/11/26 07:27:44;;;;;;;3.63;1.27;;;;;;;;;;2083337;28;20041;-78
2021/11/26 07:29:03;;;;;;;8.15;1.95;;;;;;;;;;2087679;28;20025;-78
2021/11/26 07:30:22;;;;;;;9.20;2.40;;;;;;;;;;2089130;28;20116;-78
2021/11/26 07:31:40;;;;;;;8.07;2.25;;;;;;;;;;2096375;28;20701;-78
2021/11/26 07:33:01;;;;;;;6.75;2.03;;;;;;;;;;2087566;28;20435;-79
2021/11/26 07:34:19;;;;;;;8.48;2.15;;;;;;;;;;2091544;28;20121;-79
2021/11/26 07:35:40;;;;;;;16.45;2.10;;;;;;;;;;2091753;28;20041;-79
2021/11/26 07:36:59;;;;;;;4.75;1.98;;;;;;;;;;2092587;28;20028;-80
2021/11/26 07:38:18;;;;;;;8.00;2.05;;;;;;;;;;2092332;28;20028;-78
2021/11/26 07:39:40;;;;;;;4.75;2.33;;;;;;;;;;2092800;28;20029;-78
2021/11/26 07:40:59;;;;;;;9.45;1.67;;;;;;;;;;2083644;28;20033;-79
2021/11/26 07:42:18;;;;;;;10.18;1.88;;;;;;;;;;2091501;28;20032;-79
2021/11/26 07:43:37;;;;;;;50.90;4.97;;;;;;;;;;2087332;28;20068;-78
2021/11/26 07:44:56;;;;;;;123.28;10.45;;;;;;;;;;2089355;28;20417;-78
2021/11/26 07:46:15;;;;;;;59.38;6.82;;;;;;;;;;2089966;28;20025;-79
2021/11/26 07:47:35;;;;;;;28.25;2.97;;;;;;;;;;2091318;28;20067;-78
2021/11/26 07:48:54;;;;;;;14.95;2.22;;;;;;;;;;2090280;28;20537;-78
2021/11/26 07:50:13;;;;;;;12.10;3.00;;;;;;;;;;2089127;28;20024;-78
2021/11/26 07:51:32;;;;;;;28.35;3.08;;;;;;;;;;2088938;28;20040;-78
2021/11/26 07:52:51;;;;;;;12.18;2.15;;;;;;;;;;2086384;28;20041;-79
2021/11/26 07:54:10;;;;;;;6.03;1.65;;;;;;;;;;2090762;28;21073;-78